Time;durP1;ratioP1;P1;durP2;ratioP2;P2;SDS_P1;SDS_P2;PMS_P1;PMS_P2;Temp;Humidity;BMP_temperature;BMP_pressure;BME280_temperature;BME280_humidity;BME280_pressure;Samples;Min_cycle;Max_cycle;Signal;HPM_P1;HPM_P2
2021/05/26 00:01:03;;;;;;;10.33;8.83;;;14.50;91.20;;;;;;5101065;28;20213;-73
2021/05/26 00:03:31;;;;;;;9.33;8.43;;;14.40;91.20;;;;;;5100910;28;20220;-72
2021/05/26 00:05:58;;;;;;;9.70;8.60;;;14.40;91.30;;;;;;5104314;28;20532;-72
2021/05/26 00:08:31;;;;;;;9.97;8.93;;;14.30;91.30;;;;;;5101511;28;20213;-72
2021/05/26 00:11:01;;;;;;;8.50;7.63;;;14.30;91.40;;;;;;5103431;28;20208;-72
2021/05/26 00:13:28;;;;;;;8.63;7.40;;;14.20;91.30;;;;;;5102811;28;20645;-72
2021/05/26 00:15:56;;;;;;;16.67;7.70;;;14.20;91.30;;;;;;5101717;28;20216;-72
2021/05/26 00:18:23;;;;;;;9.20;7.43;;;14.20;91.50;;;;;;5085387;28;20213;-72
2021/05/26 00:20:52;;;;;;;10.67;7.83;;;14.20;91.50;;;;;;5101814;28;20306;-72
2021/05/26 00:23:21;;;;;;;9.60;6.77;;;14.20;91.50;;;;;;5100534;28;20703;-72
2021/05/26 00:25:49;;;;;;;8.47;7.03;;;14.20;91.50;;;;;;5085626;28;20917;-72
2021/05/26 00:28:17;;;;;;;7.73;6.90;;;14.20;91.40;;;;;;5101238;28;20209;-72
2021/05/26 00:31:04;;;;;;;11.03;8.40;;;14.20;91.40;;;;;;5086083;28;20204;-72
2021/05/26 00:33:31;;;;;;;8.43;7.60;;;14.10;91.40;;;;;;5100167;28;20715;-73
2021/05/26 00:35:59;;;;;;;9.17;7.60;;;14.10;91.50;;;;;;5102109;28;20209;-73
2021/05/26 00:38:26;;;;;;;9.97;7.07;;;14.10;91.60;;;;;;5084917;28;20549;-72
2021/05/26 00:40:53;;;;;;;9.17;7.60;;;14.10;91.60;;;;;;5084270;28;20561;-72
2021/05/26 00:43:21;;;;;;;8.57;7.67;;;14.00;91.60;;;;;;5102529;28;20217;-72
2021/05/26 00:45:48;;;;;;;8.50;7.60;;;14.00;91.60;;;;;;5099982;28;20658;-72
2021/05/26 00:48:16;;;;;;;10.77;8.20;;;13.90;91.60;;;;;;5102906;28;20545;-72
2021/05/26 00:50:44;;;;;;;9.43;7.50;;;13.90;91.70;;;;;;5097654;28;20265;-73
2021/05/26 00:53:13;;;;;;;9.87;7.90;;;13.90;91.70;;;;;;5081940;28;20251;-72
2021/05/26 00:55:42;;;;;;;11.27;8.03;;;13.90;91.80;;;;;;5083446;28;20212;-72
2021/05/26 00:58:11;;;;;;;10.07;7.97;;;13.90;91.80;;;;;;5103253;28;20295;-72
2021/05/26 01:00:40;;;;;;;9.57;8.10;;;13.90;91.80;;;;;;5083135;28;20221;-72
2021/05/26 01:03:08;;;;;;;10.83;8.30;;;13.90;91.80;;;;;;5103742;28;20222;-72
2021/05/26 01:05:36;;;;;;;10.10;7.77;;;13.90;92.00;;;;;;5095819;28;20232;-73
2021/05/26 01:08:03;;;;;;;9.23;7.77;;;13.80;91.90;;;;;;5096694;28;20209;-72
2021/05/26 01:10:33;;;;;;;10.73;7.90;;;13.80;91.90;;;;;;5096390;28;20213;-72
2021/05/26 01:13:01;;;;;;;10.63;8.53;;;13.80;92.00;;;;;;5103679;28;20221;-72
2021/05/26 01:15:28;;;;;;;15.23;8.27;;;13.80;92.10;;;;;;5100512;28;20296;-73
2021/05/26 01:17:56;;;;;;;10.33;8.13;;;13.70;92.10;;;;;;5103545;28;20289;-72
2021/05/26 01:20:27;;;;;;;8.63;7.40;;;13.70;92.20;;;;;;5100052;28;20227;-72
2021/05/26 01:22:57;;;;;;;8.10;6.93;;;13.70;92.10;;;;;;5099682;28;20718;-72
2021/05/26 01:25:25;;;;;;;8.97;8.07;;;13.70;92.10;;;;;;5084334;28;20699;-72
2021/05/26 01:27:53;;;;;;;11.27;8.67;;;13.70;92.10;;;;;;5084091;28;20213;-72
2021/05/26 01:30:24;;;;;;;10.53;7.20;;;13.70;92.20;;;;;;5100878;28;20218;-72
2021/05/26 01:32:51;;;;;;;9.37;6.90;;;13.70;92.20;;;;;;5096924;28;20205;-73
2021/05/26 01:35:19;;;;;;;9.20;7.03;;;13.70;92.20;;;;;;5103687;28;20247;-72
2021/05/26 01:37:48;;;;;;;7.70;6.90;;;13.60;92.10;;;;;;5102020;28;20213;-72
2021/05/26 01:40:18;;;;;;;8.60;6.40;;;13.60;92.00;;;;;;5102602;28;20279;-72
2021/05/26 01:42:46;;;;;;;10.17;6.40;;;13.60;92.00;;;;;;5103876;28;20270;-73
2021/05/26 01:45:16;;;;;;;7.33;6.63;;;13.60;92.10;;;;;;5107275;28;20239;-72
2021/05/26 01:47:47;;;;;;;9.43;7.23;;;13.50;92.10;;;;;;5067461;28;20220;-72
2021/05/26 01:50:21;;;;;;;8.13;6.30;;;13.50;92.00;;;;;;5104347;28;20553;-72
2021/05/26 01:52:57;;;;;;;7.27;6.03;;;13.50;92.10;;;;;;5104781;28;20286;-72
2021/05/26 01:55:25;;;;;;;6.13;4.73;;;13.40;92.00;;;;;;5086564;28;20212;-72
2021/05/26 01:57:53;;;;;;;6.00;4.07;;;13.40;92.00;;;;;;5106274;28;20216;-72
2021/05/26 02:00:20;;;;;;;6.57;4.90;;;13.40;91.90;;;;;;5103914;28;20213;-72
2021/05/26 02:02:48;;;;;;;4.30;3.90;;;13.40;91.90;;;;;;5088993;28;20603;-72
2021/05/26 02:05:16;;;;;;;7.07;3.87;;;13.30;91.90;;;;;;5105171;28;20224;-72
2021/05/26 02:07:44;;;;;;;5.60;3.83;;;13.30;91.90;;;;;;5101726;28;20521;-72
2021/05/26 02:10:15;;;;;;;3.47;3.17;;;13.30;91.80;;;;;;5101061;28;20241;-72
2021/05/26 02:12:44;;;;;;;3.40;3.10;;;13.30;91.70;;;;;;5100000;28;20209;-72
2021/05/26 02:15:14;;;;;;;5.53;3.70;;;13.30;91.70;;;;;;5106131;28;20549;-73
2021/05/26 02:17:41;;;;;;;4.13;3.47;;;13.30;91.60;;;;;;5104072;28;20307;-72
2021/05/26 02:20:10;;;;;;;6.67;3.37;;;13.20;91.60;;;;;;5102798;28;20563;-72
2021/05/26 02:22:38;;;;;;;7.67;3.47;;;13.20;91.60;;;;;;5084539;28;20217;-72
2021/05/26 02:25:06;;;;;;;5.20;3.53;;;13.20;91.60;;;;;;5103821;28;20277;-72
2021/05/26 02:27:34;;;;;;;7.07;3.70;;;13.20;91.80;;;;;;5104659;28;20213;-72
2021/05/26 02:30:01;;;;;;;7.07;3.47;;;13.20;91.50;;;;;;5105114;28;20636;-72
2021/05/26 02:32:28;;;;;;;4.17;3.07;;;13.20;91.50;;;;;;5104725;28;20234;-72
2021/05/26 02:35:01;;;;;;;5.93;3.23;;;13.20;91.50;;;;;;5086883;28;20297;-72
2021/05/26 02:37:28;;;;;;;4.03;3.27;;;13.20;91.50;;;;;;5105649;28;20223;-72
2021/05/26 02:39:55;;;;;;;3.60;3.27;;;13.20;91.50;;;;;;5099092;28;20252;-72
2021/05/26 02:42:23;;;;;;;8.30;3.17;;;13.20;91.50;;;;;;5085374;28;20252;-72
2021/05/26 02:44:50;;;;;;;3.30;2.50;;;13.10;91.50;;;;;;5105374;28;20216;-72
2021/05/26 02:47:18;;;;;;;2.57;2.37;;;13.10;91.50;;;;;;5103373;28;20213;-72
2021/05/26 02:49:45;;;;;;;5.17;2.73;;;13.10;91.50;;;;;;5088104;28;20208;-73
2021/05/26 02:52:12;;;;;;;4.40;3.00;;;13.10;91.40;;;;;;5102251;28;20205;-73
2021/05/26 02:54:39;;;;;;;3.10;2.77;;;13.10;91.40;;;;;;5102918;28;20209;-73
2021/05/26 02:57:07;;;;;;;3.03;2.73;;;13.10;91.30;;;;;;5089128;28;20302;-72
2021/05/26 02:59:34;;;;;;;4.03;2.50;;;13.00;91.30;;;;;;5085399;28;20608;-73
2021/05/26 03:02:01;;;;;;;4.23;2.80;;;13.00;91.40;;;;;;5101891;28;20217;-73
2021/05/26 03:04:28;;;;;;;4.03;3.10;;;13.00;91.30;;;;;;5106028;28;20212;-72
2021/05/26 03:06:55;;;;;;;3.40;2.67;;;13.00;91.30;;;;;;5076780;28;20232;-72
2021/05/26 03:09:22;;;;;;;3.87;2.80;;;12.90;91.30;;;;;;5105885;28;20208;-72
2021/05/26 03:11:49;;;;;;;2.90;2.30;;;12.80;91.20;;;;;;5102515;28;20217;-72
2021/05/26 03:14:16;;;;;;;5.60;3.20;;;12.80;91.30;;;;;;5087443;28;20239;-72
2021/05/26 03:16:44;;;;;;;3.87;2.57;;;12.70;91.20;;;;;;5105783;28;20496;-72
2021/05/26 03:19:11;;;;;;;2.87;2.67;;;12.60;91.30;;;;;;5102248;28;20232;-73
2021/05/26 03:21:39;;;;;;;2.87;2.43;;;12.60;91.40;;;;;;5088971;28;20216;-72
2021/05/26 03:24:07;;;;;;;2.10;1.90;;;12.60;91.50;;;;;;5099060;28;20624;-72
2021/05/26 03:26:34;;;;;;;2.83;2.57;;;12.60;91.50;;;;;;5098256;28;20328;-72
2021/05/26 03:29:02;;;;;;;3.57;2.30;;;12.60;91.60;;;;;;5105055;28;20265;-72
2021/05/26 03:31:31;;;;;;;3.37;2.20;;;12.60;91.60;;;;;;5101725;28;20288;-72
2021/05/26 03:33:58;;;;;;;6.90;2.67;;;12.60;91.70;;;;;;5106193;28;20204;-72
2021/05/26 03:36:26;;;;;;;2.40;2.20;;;12.60;91.80;;;;;;5102439;28;20270;-72
2021/05/26 03:38:53;;;;;;;3.07;2.33;;;12.50;91.50;;;;;;5104565;28;20220;-72
2021/05/26 03:41:20;;;;;;;2.80;2.37;;;12.50;91.40;;;;;;5102371;28;20270;-72
2021/05/26 03:43:47;;;;;;;4.67;2.30;;;12.50;91.40;;;;;;5104536;28;20219;-72
2021/05/26 03:46:14;;;;;;;2.90;2.60;;;12.40;91.40;;;;;;5102209;28;20551;-72
2021/05/26 03:48:42;;;;;;;3.53;2.50;;;12.40;91.50;;;;;;5104779;28;20216;-72
2021/05/26 03:51:09;;;;;;;7.47;2.90;;;12.40;91.50;;;;;;5102000;28;20212;-72
2021/05/26 03:53:36;;;;;;;3.90;2.97;;;12.40;91.60;;;;;;5083690;28;20305;-72
2021/05/26 03:56:04;;;;;;;4.10;2.60;;;12.40;91.60;;;;;;5104233;28;20204;-73
2021/05/26 03:58:32;;;;;;;4.00;2.87;;;12.40;91.50;;;;;;5103442;28;20212;-72
2021/05/26 04:00:59;;;;;;;6.03;3.03;;;12.40;91.40;;;;;;5083286;28;20249;-72
2021/05/26 04:03:26;;;;;;;6.83;3.00;;;12.40;91.20;;;;;;5102079;28;20230;-72
2021/05/26 04:05:53;;;;;;;5.93;3.40;;;12.40;91.30;;;;;;5086219;28;20706;-72
2021/05/26 04:08:21;;;;;;;6.80;3.07;;;12.40;91.30;;;;;;5084736;28;20486;-72
2021/05/26 04:10:48;;;;;;;7.57;3.07;;;12.40;91.30;;;;;;5085705;28;20374;-72
2021/05/26 04:13:15;;;;;;;6.13;2.77;;;12.40;91.40;;;;;;5102976;28;20205;-72
2021/05/26 04:15:43;;;;;;;3.07;2.77;;;12.50;91.40;;;;;;5102560;28;20641;-72
2021/05/26 04:18:10;;;;;;;6.90;3.20;;;12.50;91.40;;;;;;5103127;28;20212;-72
2021/05/26 04:20:38;;;;;;;3.63;3.00;;;12.60;91.30;;;;;;5085659;28;20299;-72
2021/05/26 04:23:05;;;;;;;6.57;2.63;;;12.70;91.40;;;;;;5100465;28;20300;-72
2021/05/26 04:25:34;;;;;;;5.00;2.80;;;12.80;91.60;;;;;;5085202;28;20543;-72
2021/05/26 04:28:01;;;;;;;2.77;2.53;;;12.90;91.30;;;;;;5103126;28;20208;-72
2021/05/26 04:30:28;;;;;;;4.37;2.33;;;12.90;91.20;;;;;;5084402;28;20212;-73
2021/05/26 04:32:55;;;;;;;2.70;2.40;;;13.10;91.20;;;;;;5085417;28;20224;-72
2021/05/26 04:35:23;;;;;;;4.67;2.13;;;13.10;91.10;;;;;;5101770;28;20475;-72
2021/05/26 04:37:50;;;;;;;2.80;2.23;;;13.30;91.00;;;;;;5103167;28;20660;-72
2021/05/26 04:40:17;;;;;;;2.20;2.00;;;13.30;90.80;;;;;;5084929;28;20264;-72
2021/05/26 04:42:45;;;;;;;5.80;2.43;;;13.40;90.70;;;;;;5102084;28;20660;-72
2021/05/26 04:45:13;;;;;;;2.83;1.87;;;13.50;90.60;;;;;;5103199;28;20252;-72
2021/05/26 04:47:40;;;;;;;8.33;2.83;;;13.60;90.60;;;;;;5083465;28;20237;-73
2021/05/26 04:50:08;;;;;;;5.57;2.33;;;13.80;90.50;;;;;;5103587;28;20863;-72
2021/05/26 04:52:35;;;;;;;3.13;2.17;;;13.90;90.20;;;;;;5099017;28;20204;-72
2021/05/26 04:55:04;;;;;;;2.83;1.90;;;14.00;90.10;;;;;;5103491;28;20216;-72
2021/05/26 04:57:31;;;;;;;8.93;2.50;;;14.20;90.20;;;;;;5096123;28;20232;-72
2021/05/26 04:59:58;;;;;;;2.40;2.17;;;14.50;89.60;;;;;;5103928;28;20260;-72
2021/05/26 05:02:25;;;;;;;2.17;1.97;;;14.80;88.90;;;;;;5082887;28;20596;-73
2021/05/26 05:04:52;;;;;;;2.50;1.33;;;15.00;87.90;;;;;;5103805;28;20220;-72
2021/05/26 05:07:19;;;;;;;1.60;1.47;;;15.10;86.90;;;;;;5100442;28;20236;-72
2021/05/26 05:09:47;;;;;;;1.33;1.10;;;15.20;86.80;;;;;;5099924;28;20661;-72
2021/05/26 05:12:14;;;;;;;2.60;1.30;;;15.20;86.20;;;;;;5082283;28;20300;-72
2021/05/26 05:14:41;;;;;;;1.50;1.30;;;15.20;84.70;;;;;;5105722;28;20200;-72
2021/05/26 05:17:09;;;;;;;1.37;1.23;;;15.20;84.70;;;;;;5082456;28;20212;-72
2021/05/26 05:19:36;;;;;;;3.13;1.53;;;15.30;84.60;;;;;;5100420;28;20596;-72
2021/05/26 05:22:03;;;;;;;7.87;2.53;;;15.40;83.60;;;;;;5100512;28;20239;-72
2021/05/26 05:24:31;;;;;;;3.77;1.43;;;15.50;83.40;;;;;;5082293;28;20217;-72
2021/05/26 05:26:58;;;;;;;4.13;1.27;;;15.50;81.40;;;;;;5100039;28;20272;-72
2021/05/26 05:29:25;;;;;;;2.47;1.33;;;15.60;81.60;;;;;;5099492;28;20295;-72
2021/05/26 05:31:52;;;;;;;3.33;1.43;;;15.70;82.00;;;;;;5100253;28;20303;-72
2021/05/26 05:34:20;;;;;;;4.83;1.20;;;15.90;82.40;;;;;;5107713;28;20208;-72
2021/05/26 05:36:47;;;;;;;2.93;1.10;;;16.20;79.10;;;;;;5086048;28;20205;-72
2021/05/26 05:39:15;;;;;;;3.67;1.53;;;16.30;77.80;;;;;;5103727;28;20255;-72
2021/05/26 05:41:44;;;;;;;1.77;1.40;;;16.30;77.60;;;;;;5078903;28;20213;-72
2021/05/26 05:44:12;;;;;;;1.67;1.10;;;16.40;77.80;;;;;;5104524;28;20208;-73
2021/05/26 05:46:39;;;;;;;12.63;1.63;;;16.40;76.60;;;;;;5106645;28;20742;-73
2021/05/26 05:49:06;;;;;;;1.60;1.03;;;16.40;76.30;;;;;;5102792;28;20277;-73
2021/05/26 05:51:34;;;;;;;1.57;1.23;;;16.50;76.30;;;;;;5104996;28;20217;-72
2021/05/26 05:54:01;;;;;;;1.83;1.60;;;16.50;75.70;;;;;;5106426;28;20721;-73
2021/05/26 05:56:28;;;;;;;2.17;1.97;;;16.60;75.30;;;;;;5103572;28;20208;-72
2021/05/26 05:58:56;;;;;;;1.80;1.33;;;16.70;76.00;;;;;;5087195;28;20213;-72
2021/05/26 06:01:23;;;;;;;2.10;1.17;;;16.80;75.90;;;;;;5106473;28;20652;-72
2021/05/26 06:03:50;;;;;;;3.77;1.33;;;17.00;75.40;;;;;;5087604;28;20645;-72
2021/05/26 06:06:17;;;;;;;1.97;1.43;;;17.10;74.60;;;;;;5088588;28;20247;-72
2021/05/26 06:08:44;;;;;;;3.17;1.40;;;17.10;75.00;;;;;;5104610;28;20210;-72
2021/05/26 06:11:12;;;;;;;3.30;1.37;;;17.30;75.70;;;;;;5103848;28;20751;-72
2021/05/26 06:13:39;;;;;;;2.57;1.13;;;17.40;74.60;;;;;;5105912;28;20208;-72
2021/05/26 06:16:06;;;;;;;1.50;1.40;;;17.40;73.50;;;;;;5105772;28;20208;-72
2021/05/26 06:18:33;;;;;;;3.60;1.23;;;17.40;73.80;;;;;;5104027;28;20641;-72
2021/05/26 06:21:02;;;;;;;2.13;1.73;;;17.70;73.00;;;;;;5105160;28;20265;-72
2021/05/26 06:23:29;;;;;;;1.30;1.00;;;17.80;72.20;;;;;;5105010;28;20721;-72
2021/05/26 06:25:56;;;;;;;4.23;1.20;;;17.80;71.90;;;;;;5104047;28;20227;-72
2021/05/26 06:28:24;;;;;;;1.60;1.40;;;17.90;73.10;;;;;;5087385;28;20221;-72
2021/05/26 06:30:58;;;;;;;2.83;1.60;;;18.10;72.60;;;;;;5087036;28;20213;-72
2021/05/26 06:33:25;;;;;;;2.70;1.40;;;18.20;71.70;;;;;;5105887;28;20235;-72
2021/05/26 06:35:53;;;;;;;2.37;1.30;;;18.30;72.00;;;;;;5103223;28;20666;-72
2021/05/26 06:38:20;;;;;;;5.50;2.30;;;18.40;71.90;;;;;;5105795;28;20227;-72
2021/05/26 06:40:47;;;;;;;3.53;1.60;;;18.40;70.80;;;;;;5084616;28;20232;-72
2021/05/26 06:43:15;;;;;;;3.70;1.67;;;18.40;71.10;;;;;;5085042;28;20205;-72
2021/05/26 06:45:42;;;;;;;4.60;1.60;;;18.50;71.40;;;;;;5102368;28;20236;-72
2021/05/26 06:48:09;;;;;;;1.80;1.70;;;18.60;70.70;;;;;;5102959;28;20761;-72
2021/05/26 06:50:36;;;;;;;2.77;1.90;;;18.70;70.60;;;;;;5102424;28;20221;-72
2021/05/26 06:53:04;;;;;;;4.03;1.70;;;18.80;70.10;;;;;;5106027;28;20236;-72
2021/05/26 06:55:31;;;;;;;4.03;1.90;;;19.00;70.30;;;;;;5084656;28;20210;-73
2021/05/26 06:57:58;;;;;;;2.63;1.90;;;19.20;70.10;;;;;;5106542;28;20977;-72
2021/05/26 07:00:26;;;;;;;2.27;1.73;;;19.50;68.90;;;;;;5098098;28;20266;-72
2021/05/26 07:02:53;;;;;;;4.13;1.80;;;19.70;68.40;;;;;;5099630;28;20643;-72
2021/05/26 07:05:21;;;;;;;3.53;2.50;;;19.80;67.20;;;;;;5098517;28;20240;-72
2021/05/26 07:07:48;;;;;;;4.73;2.07;;;20.10;67.20;;;;;;5098400;28;20294;-72
2021/05/26 07:10:19;;;;;;;6.23;2.03;;;20.10;65.70;;;;;;5101632;28;20209;-72
2021/05/26 07:12:48;;;;;;;2.80;2.13;;;19.90;66.00;;;;;;5104862;28;20209;-72
2021/05/26 07:15:16;;;;;;;4.67;2.03;;;19.80;67.10;;;;;;5084718;28;20208;-72
2021/05/26 07:17:44;;;;;;;2.33;1.40;;;19.80;67.10;;;;;;5103074;28;20278;-72
2021/05/26 07:20:14;;;;;;;3.83;1.50;;;20.10;67.10;;;;;;5104705;28;20219;-73
2021/05/26 07:22:41;;;;;;;3.90;1.77;;;20.40;65.70;;;;;;5085801;28;20209;-73
2021/05/26 07:25:10;;;;;;;3.80;2.13;;;20.50;65.20;;;;;;5103634;28;20224;-72
2021/05/26 07:27:38;;;;;;;3.50;1.77;;;20.50;63.80;;;;;;5086428;28;20233;-72
2021/05/26 07:30:06;;;;;;;3.47;1.73;;;20.20;63.40;;;;;;5103210;28;20303;-72
2021/05/26 07:32:33;;;;;;;2.57;1.73;;;20.10;65.20;;;;;;5103181;28;20217;-72
2021/05/26 07:35:01;;;;;;;4.03;2.03;;;20.10;66.00;;;;;;5085616;28;20212;-72
2021/05/26 07:37:28;;;;;;;2.27;2.07;;;20.00;66.00;;;;;;5103288;28;20641;-72
2021/05/26 07:39:56;;;;;;;4.50;2.20;;;20.10;67.30;;;;;;5101312;28;20268;-72
2021/05/26 07:42:24;;;;;;;2.97;1.57;;;20.30;67.20;;;;;;5104235;28;20224;-72
2021/05/26 07:44:51;;;;;;;2.87;2.03;;;20.40;67.00;;;;;;5102574;28;20621;-72
2021/05/26 07:47:19;;;;;;;5.93;2.30;;;20.60;67.00;;;;;;5103717;28;20622;-72
2021/05/26 07:49:46;;;;;;;4.07;2.00;;;20.60;65.90;;;;;;5099596;28;20200;-73
2021/05/26 07:52:19;;;;;;;3.47;2.07;;;20.70;66.60;;;;;;5103935;28;20223;-73
2021/05/26 07:54:48;;;;;;;6.97;2.50;;;20.90;65.90;;;;;;5097432;28;20239;-72
2021/05/26 07:57:16;;;;;;;2.20;2.00;;;20.90;65.60;;;;;;5097478;28;20697;-72
2021/05/26 07:59:44;;;;;;;3.97;2.20;;;21.00;65.10;;;;;;5104479;28;20224;-72
2021/05/26 08:02:12;;;;;;;5.90;2.67;;;21.00;64.90;;;;;;5100770;28;20239;-72
2021/05/26 08:04:40;;;;;;;2.20;2.00;;;21.10;66.00;;;;;;5101605;28;20239;-72
2021/05/26 08:07:10;;;;;;;2.90;2.10;;;21.30;66.00;;;;;;5103778;28;20278;-72
2021/05/26 08:09:39;;;;;;;4.87;2.60;;;21.40;65.10;;;;;;5101148;28;20243;-72
2021/05/26 08:12:08;;;;;;;4.53;2.47;;;21.40;66.10;;;;;;5083028;28;20530;-72
2021/05/26 08:14:37;;;;;;;4.10;2.33;;;21.40;66.70;;;;;;5103336;28;20292;-73
2021/05/26 08:17:05;;;;;;;3.57;2.30;;;21.50;65.80;;;;;;5103001;28;20715;-72
2021/05/26 08:19:32;;;;;;;4.00;2.30;;;21.60;65.20;;;;;;5086411;28;20213;-72
2021/05/26 08:22:00;;;;;;;3.77;2.50;;;21.60;65.60;;;;;;5085838;28;20281;-72
2021/05/26 08:24:27;;;;;;;5.03;2.87;;;21.60;65.60;;;;;;5086007;28;20213;-72
2021/05/26 08:26:54;;;;;;;7.43;2.73;;;21.70;64.20;;;;;;5103048;28;20244;-72
2021/05/26 08:29:22;;;;;;;7.20;2.53;;;21.60;64.40;;;;;;5087306;28;20542;-72
2021/05/26 08:31:50;;;;;;;5.17;2.50;;;21.60;64.40;;;;;;5084525;28;20204;-73
2021/05/26 08:34:18;;;;;;;4.57;2.90;;;21.60;65.20;;;;;;5085950;28;20216;-72
2021/05/26 08:36:45;;;;;;;5.33;2.90;;;21.80;65.10;;;;;;5101447;28;20636;-72
2021/05/26 08:39:12;;;;;;;8.17;2.97;;;21.80;65.50;;;;;;5103356;28;20233;-72
2021/05/26 08:41:39;;;;;;;6.77;3.47;;;21.90;65.20;;;;;;5100165;28;20250;-72
2021/05/26 08:44:08;;;;;;;5.70;2.53;;;22.10;65.60;;;;;;5104699;28;20273;-72
2021/05/26 08:46:36;;;;;;;7.60;2.93;;;22.20;65.40;;;;;;5098876;28;20205;-72
2021/05/26 08:49:04;;;;;;;3.47;2.50;;;22.30;65.30;;;;;;5086323;28;20215;-73
2021/05/26 08:51:32;;;;;;;12.70;3.50;;;22.40;63.60;;;;;;5102465;28;20213;-73
2021/05/26 08:53:59;;;;;;;3.97;2.73;;;22.40;64.50;;;;;;5096252;28;20213;-73
2021/05/26 08:56:27;;;;;;;4.30;3.20;;;22.50;65.00;;;;;;5078736;28;20252;-73
2021/05/26 08:58:59;;;;;;;5.07;3.47;;;22.70;63.30;;;;;;5097772;28;20565;-72
2021/05/26 09:01:26;;;;;;;9.07;3.73;;;22.60;63.20;;;;;;5085845;28;20650;-72
2021/05/26 09:03:54;;;;;;;7.30;3.30;;;22.60;64.00;;;;;;5083206;28;20296;-72
2021/05/26 09:06:21;;;;;;;7.80;4.47;;;22.70;65.00;;;;;;5103984;28;20208;-73
2021/05/26 09:08:53;;;;;;;4.87;3.40;;;22.80;64.40;;;;;;5085383;28;20262;-73
2021/05/26 09:11:32;;;;;;;7.40;3.23;;;22.80;64.90;;;;;;5099899;28;20556;-72
2021/05/26 09:14:13;;;;;;;5.83;3.93;;;22.90;63.80;;;;;;5071713;28;20664;-73
2021/05/26 09:16:40;;;;;;;8.67;3.77;;;22.80;62.30;;;;;;5095299;28;20302;-72
2021/05/26 09:19:11;;;;;;;5.50;3.50;;;22.70;64.80;;;;;;5100403;28;20634;-72
2021/05/26 09:22:00;;;;;;;7.67;4.27;;;22.80;63.90;;;;;;5084363;28;20213;-72
2021/05/26 09:24:29;;;;;;;7.00;4.63;;;22.70;64.60;;;;;;5098117;28;20276;-73
2021/05/26 09:27:00;;;;;;;6.97;4.13;;;22.80;64.30;;;;;;5099932;28;20232;-73
2021/05/26 09:29:31;;;;;;;10.70;4.43;;;22.90;63.00;;;;;;5084742;28;20600;-73
2021/05/26 09:32:12;;;;;;;7.77;4.53;;;22.80;63.30;;;;;;5082486;28;20612;-73
2021/05/26 09:34:45;;;;;;;6.07;4.23;;;22.80;63.60;;;;;;5096715;28;20208;-73
2021/05/26 09:37:18;;;;;;;8.60;4.37;;;22.80;64.70;;;;;;5104120;28;20213;-73
2021/05/26 09:39:51;;;;;;;12.17;4.67;;;23.00;64.70;;;;;;5100624;28;20251;-73
2021/05/26 09:42:23;;;;;;;6.40;3.83;;;23.10;64.40;;;;;;5102975;28;20220;-73
2021/05/26 09:45:08;;;;;;;7.37;3.77;;;23.30;63.50;;;;;;5099799;28;20260;-73
2021/05/26 09:47:39;;;;;;;6.97;4.37;;;23.40;63.60;;;;;;5098826;28;20662;-73
2021/05/26 09:50:17;;;;;;;9.20;3.23;;;23.60;63.20;;;;;;5085172;28;20552;-73
2021/05/26 09:52:54;;;;;;;9.23;3.77;;;23.80;62.60;;;;;;5096076;28;20224;-73
2021/05/26 09:55:30;;;;;;;6.33;3.33;;;24.00;62.60;;;;;;5083624;28;20240;-73
2021/05/26 09:57:58;;;;;;;11.27;3.17;;;24.10;61.50;;;;;;5102515;28;20221;-72
2021/05/26 10:00:27;;;;;;;12.20;3.37;;;24.20;60.30;;;;;;5101964;28;20221;-72
2021/05/26 10:02:54;;;;;;;7.47;3.47;;;24.50;61.00;;;;;;5088636;28;20672;-72
2021/05/26 10:05:23;;;;;;;7.67;2.93;;;24.60;60.20;;;;;;5086161;28;20208;-72
2021/05/26 10:07:57;;;;;;;4.77;3.27;;;24.80;58.30;;;;;;5089063;28;20232;-73
2021/05/26 10:10:29;;;;;;;7.83;3.27;;;24.90;59.40;;;;;;5096928;28;20216;-73
2021/05/26 10:13:00;;;;;;;5.43;3.87;;;25.20;60.20;;;;;;5106088;28;20259;-73
2021/05/26 10:15:29;;;;;;;7.73;3.93;;;25.50;58.40;;;;;;5085268;28;20251;-73
2021/05/26 10:17:58;;;;;;;8.60;4.50;;;25.40;57.70;;;;;;5103222;28;20249;-73
2021/05/26 10:20:26;;;;;;;8.60;4.17;;;25.20;58.40;;;;;;5105479;28;20220;-73
2021/05/26 10:22:56;;;;;;;10.03;4.20;;;25.20;58.30;;;;;;5104369;28;20216;-73
2021/05/26 10:25:23;;;;;;;6.70;2.53;;;25.20;57.60;;;;;;5105867;28;20219;-73
2021/05/26 10:27:56;;;;;;;8.10;3.53;;;25.20;57.20;;;;;;5104090;28;20241;-73
2021/05/26 10:30:27;;;;;;;7.77;3.37;;;25.50;55.60;;;;;;5098946;28;20229;-73
2021/05/26 10:33:01;;;;;;;5.50;3.77;;;25.60;54.20;;;;;;5100410;28;20219;-73
2021/05/26 10:35:51;;;;;;;11.80;3.90;;;25.70;55.40;;;;;;5105843;28;20269;-73
2021/05/26 10:38:18;;;;;;;8.93;4.10;;;25.80;56.00;;;;;;5099641;28;20221;-73
2021/05/26 10:40:56;;;;;;;7.00;4.30;;;26.00;56.00;;;;;;5102885;28;20277;-73
2021/05/26 10:43:24;;;;;;;6.47;3.13;;;26.00;54.30;;;;;;5104984;28;20217;-73
2021/05/26 10:45:54;;;;;;;7.33;3.60;;;25.90;55.00;;;;;;5100342;28;20243;-73
2021/05/26 10:48:53;;;;;;;5.30;2.90;;;25.90;53.90;;;;;;5087618;28;20695;-73
2021/05/26 10:51:40;;;;;;;12.83;3.60;;;25.90;52.30;;;;;;5087045;28;20291;-74
2021/05/26 10:54:07;;;;;;;8.87;3.30;;;25.80;53.60;;;;;;5102285;28;20273;-73
2021/05/26 10:56:37;;;;;;;8.63;3.23;;;25.80;53.70;;;;;;5104142;28;20685;-73
2021/05/26 10:59:14;;;;;;;6.63;2.67;;;25.90;53.10;;;;;;5086538;28;20244;-73
2021/05/26 11:02:11;;;;;;;12.30;3.77;;;25.90;54.50;;;;;;5106178;28;20539;-73
2021/05/26 11:04:40;;;;;;;7.57;4.33;;;25.90;53.90;;;;;;5081966;28;20216;-73
2021/05/26 11:07:18;;;;;;;11.20;4.40;;;26.10;54.20;;;;;;5105936;28;20208;-73
2021/05/26 11:10:02;;;;;;;7.10;4.10;;;26.20;53.70;;;;;;5083842;28;20210;-73
2021/05/26 11:12:55;;;;;;;8.97;3.07;;;26.10;53.70;;;;;;5105602;28;20302;-74
2021/05/26 11:15:56;;;;;;;6.77;2.20;;;26.20;53.50;;;;;;5087635;28;20632;-73
2021/05/26 11:20:54;;;;;;;6.50;3.10;;;26.30;50.70;;;;;;5105493;28;20285;-74
2021/05/26 11:23:22;;;;;;;6.40;2.33;;;26.40;51.00;;;;;;5101349;28;20244;-73
2021/05/26 11:25:51;;;;;;;7.87;2.70;;;26.50;51.40;;;;;;5105337;28;20304;-73
2021/05/26 11:28:32;;;;;;;7.43;2.90;;;26.60;51.70;;;;;;5104469;28;20232;-73
2021/05/26 11:31:05;;;;;;;7.57;3.10;;;26.80;49.60;;;;;;5105147;28;20205;-73
2021/05/26 11:33:33;;;;;;;5.60;2.63;;;26.90;51.30;;;;;;5097678;28;20240;-73
2021/05/26 11:36:08;;;;;;;8.27;3.00;;;26.90;49.90;;;;;;5097868;28;20606;-73
2021/05/26 11:38:36;;;;;;;8.17;4.07;;;26.80;49.80;;;;;;5080272;28;20231;-73
2021/05/26 11:41:17;;;;;;;7.13;3.07;;;26.80;49.60;;;;;;5104063;28;20319;-73
2021/05/26 11:43:45;;;;;;;9.07;3.90;;;26.70;50.30;;;;;;5102717;28;20224;-73
2021/05/26 11:46:12;;;;;;;5.43;3.73;;;26.70;50.40;;;;;;5083301;28;20255;-73
2021/05/26 11:48:47;;;;;;;8.53;3.67;;;26.60;49.70;;;;;;5101340;28;20260;-74
2021/05/26 11:51:31;;;;;;;6.90;2.53;;;26.60;50.90;;;;;;5077665;28;20206;-74
2021/05/26 11:53:58;;;;;;;6.63;2.50;;;26.50;50.90;;;;;;5105607;28;20265;-73
2021/05/26 11:56:25;;;;;;;3.60;2.07;;;26.60;51.80;;;;;;5087252;28;20648;-73
2021/05/26 11:58:53;;;;;;;3.30;2.00;;;26.70;52.00;;;;;;5084567;28;20231;-73
2021/05/26 12:01:29;;;;;;;3.57;2.00;;;26.80;47.90;;;;;;5099886;28;20656;-73
2021/05/26 12:03:56;;;;;;;7.20;2.43;;;26.90;49.60;;;;;;5063996;28;20209;-73
2021/05/26 12:06:24;;;;;;;6.90;2.03;;;26.90;49.50;;;;;;5105628;28;20221;-73
2021/05/26 12:08:53;;;;;;;9.53;2.43;;;27.00;48.20;;;;;;5086878;28;20580;-73
2021/05/26 12:11:26;;;;;;;5.70;2.47;;;27.00;46.70;;;;;;5098785;28;20209;-73
2021/05/26 12:13:53;;;;;;;5.70;2.53;;;27.00;46.20;;;;;;5085884;28;20262;-74
2021/05/26 12:16:21;;;;;;;5.63;2.20;;;26.80;47.50;;;;;;5101214;28;20208;-74
2021/05/26 12:18:53;;;;;;;8.80;2.97;;;26.90;48.40;;;;;;5103093;28;20213;-74
2021/05/26 12:21:22;;;;;;;6.40;2.57;;;26.80;46.30;;;;;;5100083;28;20201;-74
2021/05/26 12:23:50;;;;;;;5.80;2.50;;;26.60;47.80;;;;;;5103800;28;20244;-73
2021/05/26 12:26:31;;;;;;;9.93;2.83;;;26.70;48.50;;;;;;5101601;28;20244;-74
2021/05/26 12:29:02;;;;;;;5.43;2.33;;;26.80;49.70;;;;;;5098388;28;20233;-74
2021/05/26 12:31:31;;;;;;;4.73;2.30;;;26.90;50.30;;;;;;5100260;28;20292;-74
2021/05/26 12:33:58;;;;;;;5.43;2.40;;;26.90;47.90;;;;;;5084586;28;20209;-74
2021/05/26 12:36:30;;;;;;;4.83;2.30;;;26.80;48.50;;;;;;5102023;28;20603;-74
2021/05/26 12:39:02;;;;;;;5.93;2.67;;;26.80;46.90;;;;;;5083268;28;20505;-74
2021/05/26 12:41:34;;;;;;;5.33;2.63;;;26.70;47.70;;;;;;5086790;28;20479;-74
2021/05/26 12:44:23;;;;;;;3.97;1.87;;;26.80;46.80;;;;;;5096602;28;20223;-74
2021/05/26 12:46:52;;;;;;;7.10;2.83;;;26.90;46.70;;;;;;5084725;28;20223;-74
2021/05/26 12:49:29;;;;;;;7.27;2.90;;;26.80;47.20;;;;;;5099454;28;20228;-74
2021/05/26 12:52:11;;;;;;;5.77;3.00;;;26.70;48.00;;;;;;5075742;28;20254;-74
2021/05/26 12:54:46;;;;;;;10.13;3.53;;;26.40;47.20;;;;;;5102783;28;20223;-74
2021/05/26 12:57:19;;;;;;;6.50;3.30;;;26.10;47.40;;;;;;5099466;28;20583;-75
2021/05/26 12:59:59;;;;;;;9.97;3.40;;;25.90;48.70;;;;;;5097163;28;20220;-74